Rentiesville, Oklahoma
Current Conditions -  °F | °C
As of 2:53 PM on Thursday 23 Oct 2014 (Local Time) from KMKO Reporting Station
Broken Clouds Broken Clouds  
Wind Chill: 62°   Ceiling: 5000
Heat Index: 62°   Visibility: 10mi
Dew Point: 57°   Wind: 7mph
Humidity: 84%   Direction: 140°SE
Pressure: 30.13"   Gusts: NA
Location:  35.52°N, 95.49°W
Report Text: KMKO 231953Z AUTO 14006KT 10SM BKN050 BKN070 17/14 A3013 RMK AO2 RAE1859 SLP200 P0000 T01670139
Loading
Personal Weather Stations






























Interactive Weather Map
Tropical Storm Tracking
New forecast layout! Learn more

10-Day Weather Forecast

Advertisements
Track Severe Weather on mobile